Portada
METAR-TAF:

METAR-TAF

Aeropuertos :

Carcasona, Francia

latitud: 43-13N, longitud: 002-19E, altitud: 130 m

Observación

El informe se hizo hace 18 minutos, a las 02:00 UTC
Viento 15 kt del este
Temperatura 9°C
Humedad 87%
Presión 1027 hPa
Visibilidad 10 km o más
Cielo nuboso a una altura de 1400 ft
Cielo nuboso a una altura de 15000 ft

METAR: LFMK 020200Z AUTO 08015KT 9999 BKN014 BKN150 09/07 Q1027

Hora: 03:18 (02:18 UTC)

Pronóstico

El informe se hizo hace 12 horas y 18 minutos, a las 14:00 UTC
Pronóstico válido del 01 a las 15 UTC al 02 a las 15 UTC
Viento 20 kt del este con ráfagas de 30 kt
Visibilidad 10 km o más
Cielo nuboso a una altura de 3000 ft
Evolucionando progresivamente
del 01 a las 21 UTC al 01 a las 23 UTC
Temporalmente
del 01 a las 20 UTC al 02 a las 10 UTC
Viento 15 kt del este

TAF: LFMK 011400Z 0115/0215 09020G30KT 9999 BKN030 BECMG 0121/0123 NSC TEMPO 0120/0210 09015KT

Observaciones y pronósticos meteorológicos de más de 4000 aeropuertos (mensajes METAR y TAF).

Los puntos amarillos y rojos representan las estaciones disponibles.

Ponga el ratón en el punto deseado para ver el nombre de la estación.

Haga clic para ver las observaciones y los pronósticos meteorológicos.

Para cambiar el mapa : haga clic en los botones verdes con una cruz de color negro para hacer un zoom, en el botón verde con un guión para alejar o en las flechas verdes para mapas adyacentes.


METAR-TAF: